createdAt,value
2019-01-22T00:01:52.773Z,48.63
2019-01-22T00:04:22.087Z,51.70
2019-01-22T00:06:51.371Z,56.65
2019-01-22T00:09:20.581Z,58.00
2019-01-22T00:11:49.885Z,50.58
2019-01-22T00:14:19.425Z,51.65
2019-01-22T00:16:48.671Z,50.25
2019-01-22T00:19:17.871Z,55.73
2019-01-22T00:21:47.088Z,52.58
2019-01-22T00:24:16.563Z,52.03
2019-01-22T00:26:47.151Z,50.38
2019-01-22T00:29:16.353Z,61.65
2019-01-22T00:31:45.554Z,59.20
2019-01-22T00:34:14.776Z,48.70
2019-01-22T00:36:44.023Z,56.68
2019-01-22T00:39:13.293Z,57.75
2019-01-22T00:41:42.598Z,56.10
2019-01-22T00:44:11.812Z,56.53
2019-01-22T00:46:41.096Z,57.62
2019-01-22T00:49:10.443Z,52.23
2019-01-22T00:51:39.665Z,61.80
2019-01-22T00:54:09.208Z,58.92
2019-01-22T00:56:38.521Z,59.60
2019-01-22T00:59:07.709Z,64.20
2019-01-22T01:01:36.937Z,58.98
2019-01-22T01:04:06.343Z,62.13
2019-01-22T01:06:35.971Z,65.87
2019-01-22T01:09:07.938Z,61.30
2019-01-22T01:11:37.248Z,63.38
2019-01-22T01:14:06.771Z,65.03
2019-01-22T01:16:37.341Z,54.80
2019-01-22T01:19:06.751Z,56.50
2019-01-22T01:21:36.106Z,58.60
2019-01-22T01:24:05.511Z,63.92
2019-01-22T01:26:35.069Z,63.23
2019-01-22T01:29:04.568Z,61.90
2019-01-22T01:31:33.906Z,62.78
2019-01-22T01:34:03.484Z,66.75
2019-01-22T01:36:32.858Z,57.95
2019-01-22T01:39:02.192Z,61.77
2019-01-22T01:41:33.535Z,60.67
2019-01-22T01:44:02.528Z,60.67
2019-01-22T01:46:32.318Z,53.55
2019-01-22T01:49:01.654Z,59.60
2019-01-22T01:51:31.467Z,61.10
2019-01-22T01:54:00.696Z,57.65
2019-01-22T01:56:33.004Z,57.40
2019-01-22T01:59:02.279Z,51.25
2019-01-22T02:01:31.494Z,70.50
2019-01-22T02:04:00.736Z,57.45
2019-01-22T02:06:29.994Z,66.90
2019-01-22T02:08:59.271Z,55.25
2019-01-22T02:11:28.519Z,62.93
2019-01-22T02:13:59.244Z,52.78
2019-01-22T02:17:00.431Z,65.92
2019-01-22T02:20:03.096Z,63.05
2019-01-22T02:23:07.936Z,63.00
2019-01-22T02:25:59.128Z,59.45
2019-01-22T02:29:14.428Z,56.77
2019-01-22T02:32:46.217Z,56.65
2019-01-22T02:35:50.208Z,62.53
2019-01-22T02:38:38.069Z,58.73
2019-01-22T02:41:23.928Z,58.17
2019-01-22T02:44:26.243Z,56.55
2019-01-22T02:47:23.286Z,55.25
2019-01-22T02:50:39.717Z,57.85
2019-01-22T02:53:42.283Z,57.67
2019-01-22T02:56:45.198Z,54.75
2019-01-22T02:59:47.041Z,57.03
2019-01-22T03:02:52.889Z,55.65
2019-01-22T03:05:36.004Z,61.75
2019-01-22T03:08:35.540Z,61.25
2019-01-22T03:11:26.410Z,56.30
2019-01-22T03:14:11.593Z,54.10
2019-01-22T03:17:25.008Z,55.70
2019-01-22T03:20:26.175Z,57.90
2019-01-22T03:23:31.683Z,59.15
2019-01-22T03:26:32.876Z,59.77
2019-01-22T03:29:40.257Z,57.13
2019-01-22T03:32:32.610Z,74.80
2019-01-22T03:35:54.176Z,58.08
2019-01-22T03:39:14.841Z,57.98
2019-01-22T03:42:24.223Z,55.12
2019-01-22T03:45:37.486Z,60.85
2019-01-22T03:48:44.004Z,57.05
2019-01-22T03:51:45.650Z,59.33
2019-01-22T03:54:42.273Z,58.75
2019-01-22T03:57:37.200Z,54.88
2019-01-22T04:00:13.236Z,58.58
2019-01-22T04:02:43.422Z,56.23
2019-01-22T04:05:12.952Z,58.83
2019-01-22T04:07:42.147Z,61.30
2019-01-22T04:10:57.276Z,65.10
2019-01-22T04:13:26.479Z,60.05
2019-01-22T04:15:55.690Z,67.17
2019-01-22T04:18:25.014Z,61.63
2019-01-22T04:20:54.314Z,58.15
2019-01-22T04:23:40.131Z,57.70
2019-01-22T04:26:26.945Z,56.35
2019-01-22T04:29:17.556Z,63.78
2019-01-22T04:32:17.094Z,66.67
2019-01-22T04:35:39.877Z,54.25
2019-01-22T04:38:23.792Z,58.90
2019-01-22T04:41:34.735Z,61.02
2019-01-22T04:44:39.051Z,58.78
2019-01-22T04:47:31.935Z,58.00
2019-01-22T04:50:37.180Z,63.38
2019-01-22T04:53:42.607Z,55.95
2019-01-22T04:56:31.100Z,60.28
2019-01-22T04:59:20.762Z,61.53
2019-01-22T05:02:35.217Z,60.33
2019-01-22T05:05:35.551Z,67.25
2019-01-22T05:08:46.140Z,66.95
2019-01-22T05:11:30.956Z,54.85
2019-01-22T05:14:33.067Z,57.53
2019-01-22T05:17:42.325Z,57.70
2019-01-22T05:20:42.041Z,63.17
2019-01-22T05:23:48.766Z,64.42
2019-01-22T05:26:49.569Z,51.63
2019-01-22T05:29:40.217Z,64.72
2019-01-22T05:32:37.490Z,60.35
2019-01-22T05:35:29.284Z,65.28
2019-01-22T05:38:16.405Z,64.53
2019-01-22T05:41:22.843Z,63.52
2019-01-22T05:44:16.762Z,62.65
2019-01-22T05:47:34.013Z,66.67
2019-01-22T05:50:18.836Z,63.05
2019-01-22T05:53:19.289Z,55.38
2019-01-22T05:55:49.408Z,54.77
2019-01-22T05:58:42.201Z,61.37
2019-01-22T06:01:20.954Z,61.05
2019-01-22T06:04:25.904Z,66.30
2019-01-22T06:07:48.357Z,63.45
2019-01-22T06:11:09.267Z,54.42
2019-01-22T06:13:59.046Z,136.30
2019-01-22T06:17:58.555Z,77.22
2019-01-22T06:24:40.585Z,67.75
2019-01-22T06:27:41.786Z,64.40
2019-01-22T06:30:46.546Z,58.33
2019-01-22T06:33:25.715Z,61.25
2019-01-22T06:36:06.817Z,60.73
2019-01-22T06:43:20.940Z,62.13
2019-01-22T06:46:17.828Z,65.90
2019-01-22T06:49:43.648Z,68.07
2019-01-22T06:52:40.456Z,67.17
2019-01-22T06:55:56.400Z,71.05
2019-01-22T06:58:50.769Z,69.85
2019-01-22T07:01:53.394Z,73.10
2019-01-22T07:05:02.460Z,76.12
2019-01-22T07:07:55.701Z,71.55
2019-01-22T07:11:03.314Z,73.57
2019-01-22T07:13:56.917Z,78.50
2019-01-22T07:16:54.765Z,77.75
2019-01-22T07:20:02.195Z,69.30
2019-01-22T07:23:08.832Z,72.17
2019-01-22T07:25:59.239Z,75.87
2019-01-22T07:29:05.091Z,72.87
2019-01-22T07:31:46.812Z,66.90
2019-01-22T07:34:46.812Z,74.10
2019-01-22T07:38:02.427Z,66.60
2019-01-22T07:41:08.921Z,71.30
2019-01-22T07:44:01.201Z,68.17
2019-01-22T07:47:06.175Z,76.53
2019-01-22T07:50:12.423Z,72.58
2019-01-22T07:52:53.711Z,82.02
2019-01-22T07:56:10.014Z,77.25
2019-01-22T07:59:04.583Z,80.00
2019-01-22T08:02:26.032Z,70.22
2019-01-22T08:05:24.215Z,74.25
2019-01-22T08:08:12.908Z,67.53
2019-01-22T08:10:54.238Z,77.20
2019-01-22T08:13:37.803Z,88.60
2019-01-22T08:16:52.740Z,75.78
2019-01-22T08:20:02.604Z,68.15
2019-01-22T08:23:11.891Z,78.62
2019-01-22T08:26:06.960Z,76.82
2019-01-22T08:29:02.160Z,85.22
2019-01-22T08:31:41.922Z,79.92
2019-01-22T08:34:47.054Z,76.67
2019-01-22T08:37:53.852Z,90.67
2019-01-22T08:40:59.506Z,83.67
2019-01-22T08:43:51.177Z,75.32
2019-01-22T08:46:56.030Z,81.35
2019-01-22T08:49:47.268Z,69.58
2019-01-22T08:52:47.683Z,71.82
2019-01-22T08:55:58.651Z,81.92
2019-01-22T08:58:59.688Z,79.27
2019-01-22T09:01:59.757Z,81.78
2019-01-22T09:05:09.353Z,69.17
2019-01-22T09:08:09.802Z,81.57
2019-01-22T09:11:02.156Z,85.62
2019-01-22T09:13:50.723Z,75.22
2019-01-22T09:16:59.638Z,68.52
2019-01-22T09:19:40.937Z,77.72
2019-01-22T09:22:23.833Z,74.80
2019-01-22T09:25:20.293Z,69.72
2019-01-22T09:28:39.468Z,74.07
2019-01-22T09:31:23.948Z,81.05
2019-01-22T09:34:27.201Z,70.17
2019-01-22T09:37:09.857Z,72.03
2019-01-22T09:39:39.030Z,65.00
2019-01-22T09:42:08.287Z,69.58
2019-01-22T09:44:37.396Z,68.85
2019-01-22T09:47:06.595Z,71.35
2019-01-22T09:49:36.837Z,68.00
2019-01-22T09:52:06.064Z,72.37
2019-01-22T09:54:35.251Z,68.52
2019-01-22T09:57:04.459Z,72.75
2019-01-22T09:59:33.657Z,66.40
2019-01-22T10:02:02.884Z,71.05
2019-01-22T10:04:32.303Z,69.05
2019-01-22T10:07:01.487Z,70.42
2019-01-22T10:09:30.611Z,67.58
2019-01-22T10:11:59.980Z,77.47
2019-01-22T10:14:29.170Z,73.45
2019-01-22T10:16:58.345Z,61.50
2019-01-22T10:19:27.440Z,66.07
2019-01-22T10:21:56.734Z,65.20
2019-01-22T10:24:26.224Z,73.45
2019-01-22T10:26:55.485Z,65.40
2019-01-22T10:29:24.574Z,78.57
2019-01-22T10:31:53.793Z,64.53
2019-01-22T10:34:22.881Z,67.53
2019-01-22T10:36:52.120Z,68.80
2019-01-22T10:39:21.308Z,71.75
2019-01-22T10:41:50.392Z,71.10
2019-01-22T10:44:19.564Z,70.32
2019-01-22T10:46:48.656Z,68.50
2019-01-22T10:49:17.819Z,76.65
2019-01-22T10:51:46.940Z,64.55
2019-01-22T10:54:16.292Z,67.55
2019-01-22T10:56:45.411Z,74.05
2019-01-22T10:59:14.622Z,63.70
2019-01-22T11:01:43.825Z,62.50
2019-01-22T11:04:13.199Z,66.45
2019-01-22T11:06:42.743Z,92.50
2019-01-22T11:09:11.897Z,74.90
2019-01-22T11:11:41.091Z,65.92
2019-01-22T11:14:11.510Z,65.50
2019-01-22T11:16:40.655Z,67.67
2019-01-22T11:19:09.839Z,67.10
2019-01-22T11:21:38.957Z,65.52
2019-01-22T11:24:08.128Z,68.90
2019-01-22T11:26:37.219Z,66.00
2019-01-22T11:29:06.427Z,64.35
2019-01-22T11:31:35.620Z,61.73
2019-01-22T11:34:05.091Z,60.28
2019-01-22T11:36:34.183Z,66.17
2019-01-22T11:39:08.483Z,59.53
2019-01-22T11:41:37.644Z,63.48
2019-01-22T11:44:06.772Z,63.95
2019-01-22T11:46:35.872Z,60.88
2019-01-22T11:49:05.228Z,59.77
2019-01-22T11:51:35.635Z,59.65
2019-01-22T11:54:05.586Z,59.73
2019-01-22T11:56:34.703Z,58.63
2019-01-22T11:59:03.856Z,63.95
2019-01-22T12:01:33.001Z,63.28
2019-01-22T12:04:02.181Z,63.52
2019-01-22T12:06:31.366Z,61.23
2019-01-22T12:09:00.545Z,59.25
2019-01-22T12:11:29.732Z,59.15
2019-01-22T12:13:58.840Z,62.83
2019-01-22T12:16:27.928Z,60.15
2019-01-22T12:18:58.068Z,59.20
2019-01-22T12:21:27.208Z,55.65
2019-01-22T12:23:56.403Z,64.32
2019-01-22T12:26:25.529Z,61.92
2019-01-22T12:28:54.683Z,59.90
2019-01-22T12:31:24.208Z,55.85
2019-01-22T12:33:53.308Z,53.17
2019-01-22T12:36:22.519Z,58.15
2019-01-22T12:38:51.687Z,59.50
2019-01-22T12:41:20.785Z,55.83
2019-01-22T12:43:49.879Z,54.60
2019-01-22T12:46:19.294Z,55.88
2019-01-22T12:48:48.390Z,58.87
2019-01-22T12:51:17.497Z,49.88
2019-01-22T12:53:46.700Z,49.70
2019-01-22T12:56:15.896Z,63.68
2019-01-22T12:58:45.026Z,48.87
2019-01-22T13:01:14.290Z,52.55
2019-01-22T13:03:43.502Z,52.30
2019-01-22T13:06:12.874Z,52.33
2019-01-22T13:08:41.992Z,52.78
2019-01-22T13:11:11.074Z,55.55
2019-01-22T13:13:40.208Z,48.92
2019-01-22T13:16:09.383Z,47.73
2019-01-22T13:18:38.482Z,52.58
2019-01-22T13:21:07.827Z,49.53
2019-01-22T13:23:36.964Z,47.60
2019-01-22T13:26:11.481Z,49.15
2019-01-22T13:28:37.475Z,54.10
2019-01-22T13:31:06.760Z,49.35
2019-01-22T13:33:35.934Z,50.35
2019-01-22T13:36:05.548Z,51.00
2019-01-22T13:38:34.699Z,56.68
2019-01-22T13:41:03.934Z,45.43
2019-01-22T13:43:33.029Z,54.73
2019-01-22T13:46:03.691Z,42.20
2019-01-22T13:48:32.903Z,43.48
2019-01-22T13:51:02.068Z,45.70
2019-01-22T13:53:31.163Z,47.40
2019-01-22T13:56:00.275Z,48.63
2019-01-22T13:58:29.387Z,39.90
2019-01-22T14:00:58.472Z,51.08
2019-01-22T14:03:27.684Z,44.88
2019-01-22T14:05:56.925Z,48.23
2019-01-22T14:08:26.176Z,44.88
2019-01-22T14:10:55.293Z,41.35
2019-01-22T14:13:24.489Z,66.42
2019-01-22T14:15:55.064Z,59.70
2019-01-22T14:18:24.263Z,48.00
2019-01-22T14:20:53.375Z,43.15
2019-01-22T14:23:22.495Z,37.83
2019-01-22T14:25:51.616Z,40.75
2019-01-22T14:28:20.742Z,44.33
2019-01-22T14:30:49.828Z,40.35
2019-01-22T14:33:18.937Z,45.00
2019-01-22T14:35:48.288Z,46.35
2019-01-22T14:38:17.388Z,58.05
2019-01-22T14:40:46.586Z,49.60
2019-01-22T14:43:15.747Z,40.92
2019-01-22T14:45:45.025Z,47.53
2019-01-22T14:48:14.123Z,47.85
2019-01-22T14:50:43.220Z,46.68
2019-01-22T14:53:12.441Z,47.33
2019-01-22T14:55:41.728Z,46.98
2019-01-22T14:58:10.818Z,42.75
2019-01-22T15:00:40.016Z,44.70
2019-01-22T15:03:09.132Z,42.73
2019-01-22T15:05:38.336Z,37.28
2019-01-22T15:08:07.536Z,38.60
2019-01-22T15:10:36.693Z,46.68
2019-01-22T15:13:05.862Z,46.37
2019-01-22T15:15:34.979Z,42.90
2019-01-22T15:18:04.560Z,51.20
2019-01-22T15:20:33.754Z,40.67
2019-01-22T15:23:02.970Z,43.25
2019-01-22T15:25:32.231Z,45.75
2019-01-22T15:28:01.344Z,41.80
2019-01-22T15:30:35.716Z,41.90
2019-01-22T15:33:07.251Z,43.83
2019-01-22T15:35:36.339Z,39.90
2019-01-22T15:38:05.684Z,44.98
2019-01-22T15:40:34.854Z,45.65
2019-01-22T15:43:04.233Z,43.78
2019-01-22T15:45:33.551Z,44.93
2019-01-22T15:48:02.808Z,41.80
2019-01-22T15:50:31.905Z,50.25
2019-01-22T15:53:01.030Z,51.42
2019-01-22T15:55:32.457Z,47.23
2019-01-22T15:58:01.616Z,51.68
2019-01-22T16:00:31.256Z,45.75
2019-01-22T16:03:21.351Z,45.05
2019-01-22T16:05:50.717Z,45.78
2019-01-22T16:08:19.904Z,49.35
2019-01-22T16:10:49.025Z,47.55
2019-01-22T16:13:18.155Z,48.15
2019-01-22T16:15:47.245Z,48.25
2019-01-22T16:18:16.360Z,48.05
2019-01-22T16:20:45.572Z,53.68
2019-01-22T16:23:14.749Z,47.13
2019-01-22T16:25:43.991Z,50.03
2019-01-22T16:28:13.213Z,49.20
2019-01-22T16:30:42.488Z,47.62
2019-01-22T16:33:11.589Z,44.83
2019-01-22T16:35:40.781Z,56.98
2019-01-22T16:38:09.961Z,44.60
2019-01-22T16:40:40.662Z,52.90
2019-01-22T16:43:09.968Z,44.93
2019-01-22T16:45:39.128Z,50.65
2019-01-22T16:48:08.682Z,48.45
2019-01-22T16:50:42.184Z,53.15
2019-01-22T16:53:16.900Z,48.95
2019-01-22T16:55:46.408Z,49.55
2019-01-22T16:58:15.635Z,49.10
2019-01-22T17:00:44.807Z,49.10
2019-01-22T17:03:14.231Z,52.50
2019-01-22T17:05:43.615Z,50.52
2019-01-22T17:08:12.795Z,57.62
2019-01-22T17:10:42.020Z,53.48
2019-01-22T17:13:11.300Z,46.08
2019-01-22T17:15:40.612Z,52.23
2019-01-22T17:18:10.108Z,52.50
2019-01-22T17:20:40.324Z,50.78
2019-01-22T17:23:09.498Z,55.90
2019-01-22T17:25:38.731Z,49.15
2019-01-22T17:28:08.155Z,53.68
2019-01-22T17:30:37.452Z,53.08
2019-01-22T17:33:19.493Z,54.60
2019-01-22T17:35:51.555Z,47.27
2019-01-22T17:38:23.447Z,50.12
2019-01-22T17:41:11.876Z,53.28
2019-01-22T17:51:18.023Z,72.90
2019-01-22T17:57:54.659Z,55.58
2019-01-22T18:07:46.563Z,56.55
2019-01-22T18:10:15.929Z,50.90
2019-01-22T18:12:45.094Z,54.73
2019-01-22T18:15:14.633Z,55.80
2019-01-22T18:17:45.280Z,52.98
2019-01-22T18:26:23.549Z,50.60
2019-01-22T18:31:28.990Z,53.60
2019-01-22T18:34:30.478Z,50.00
2019-01-22T18:52:41.531Z,58.55
2019-01-22T18:55:14.389Z,51.68
2019-01-22T18:57:44.549Z,49.63
2019-01-22T19:00:17.758Z,53.10
2019-01-22T19:02:47.912Z,49.10
2019-01-22T19:05:35.893Z,58.78
2019-01-22T19:08:05.190Z,59.55
2019-01-22T19:10:34.392Z,49.23
2019-01-22T19:13:03.508Z,50.58
2019-01-22T19:15:42.715Z,48.23
2019-01-22T19:18:20.400Z,52.00
2019-01-22T19:24:39.701Z,45.23
2019-01-22T19:27:27.120Z,52.73
2019-01-22T19:30:49.861Z,48.45
2019-01-22T19:33:13.057Z,56.37
2019-01-22T19:35:42.791Z,55.33
2019-01-22T19:41:23.254Z,53.95
2019-01-22T19:43:52.430Z,54.65
2019-01-22T19:46:22.195Z,59.90
2019-01-22T19:49:01.293Z,58.40
2019-01-22T19:51:30.480Z,52.13
2019-01-22T19:53:59.666Z,51.90
2019-01-22T19:56:28.873Z,49.45
2019-01-22T19:58:59.752Z,50.28
2019-01-22T20:01:28.881Z,55.80
2019-01-22T20:03:58.053Z,48.87
2019-01-22T20:06:27.152Z,54.70
2019-01-22T20:08:56.476Z,55.67
2019-01-22T20:11:25.601Z,49.18
2019-01-22T20:13:54.717Z,45.95
2019-01-22T20:16:23.856Z,50.15
2019-01-22T20:18:53.036Z,50.73
2019-01-22T20:21:22.127Z,47.67
2019-01-22T20:23:51.325Z,49.58
2019-01-22T20:26:20.457Z,46.90
2019-01-22T20:28:49.628Z,47.60
2019-01-22T20:31:31.949Z,53.95
2019-01-22T20:34:11.488Z,49.30
2019-01-22T20:36:43.223Z,51.53
2019-01-22T20:39:14.688Z,44.00
2019-01-22T20:41:54.673Z,45.83
2019-01-22T20:44:27.183Z,45.80
2019-01-22T20:47:05.750Z,50.45
2019-01-22T20:49:54.755Z,52.05
2019-01-22T20:52:25.582Z,46.85
2019-01-22T20:54:54.891Z,64.10
2019-01-22T20:57:24.213Z,51.53
2019-01-22T20:59:55.660Z,44.77
2019-01-22T21:02:26.169Z,47.83
2019-01-22T21:04:55.349Z,44.10
2019-01-22T21:07:24.555Z,47.62
2019-01-22T21:09:53.788Z,48.25
2019-01-22T21:12:23.018Z,45.00
2019-01-22T21:14:52.219Z,41.90
2019-01-22T21:17:21.440Z,48.28
2019-01-22T21:19:50.642Z,43.73
2019-01-22T21:22:19.824Z,43.20
2019-01-22T21:24:51.471Z,49.83
2019-01-22T21:27:20.588Z,52.30
2019-01-22T21:29:49.749Z,50.80
2019-01-22T21:47:14.933Z,45.65
2019-01-22T21:49:45.454Z,41.00
2019-01-22T21:52:14.660Z,50.52
2019-01-22T21:54:43.796Z,54.50
2019-01-22T21:57:13.010Z,40.35
2019-01-22T21:59:42.226Z,49.40
2019-01-22T22:02:45.281Z,43.60
2019-01-22T22:05:49.894Z,46.37
2019-01-22T22:08:35.869Z,48.10
2019-01-22T22:11:22.353Z,43.30
2019-01-22T22:14:06.520Z,44.20
2019-01-22T22:17:11.095Z,47.50
2019-01-22T22:20:27.227Z,40.55
2019-01-22T22:23:48.613Z,39.80
2019-01-22T22:26:41.551Z,39.20
2019-01-22T22:30:16.296Z,42.58
2019-01-22T22:33:49.238Z,43.68
2019-01-22T22:36:40.321Z,37.65
2019-01-22T22:39:34.765Z,37.05
2019-01-22T22:42:47.577Z,38.58
2019-01-22T22:45:55.857Z,37.08
2019-01-22T22:49:10.737Z,37.00
2019-01-22T22:52:32.084Z,37.65
2019-01-22T22:55:29.923Z,36.28
2019-01-22T22:58:28.623Z,33.08
2019-01-22T23:01:27.201Z,32.33
2019-01-22T23:04:22.576Z,34.05
2019-01-22T23:07:06.331Z,30.48
2019-01-22T23:09:33.100Z,31.20
2019-01-22T23:12:09.095Z,34.73
2019-01-22T23:14:56.569Z,38.92
2019-01-22T23:17:46.707Z,35.33
2019-01-22T23:20:47.435Z,34.38
2019-01-22T23:23:41.520Z,35.03
2019-01-22T23:26:30.677Z,29.07
2019-01-22T23:29:20.720Z,29.92
2019-01-22T23:32:02.855Z,31.73
2019-01-22T23:34:57.942Z,34.70
2019-01-22T23:37:41.989Z,30.97
2019-01-22T23:40:31.396Z,34.10
2019-01-22T23:43:09.084Z,33.28
2019-01-22T23:45:47.586Z,33.28
2019-01-22T23:48:38.773Z,27.40
2019-01-22T23:51:18.125Z,33.65
2019-01-22T23:53:51.248Z,35.43
2019-01-22T23:57:00.584Z,29.35
